createdAt,value
2023-05-11T00:00:05.466Z,95850.09
2023-05-11T00:02:34.516Z,95852.78
2023-05-11T00:05:03.471Z,95852.47
2023-05-11T00:07:33.193Z,95860.16
2023-05-11T00:10:01.920Z,95857.59
2023-05-11T00:12:30.395Z,95847.09
2023-05-11T00:14:59.265Z,95850.59
2023-05-11T00:17:28.055Z,95845.50
2023-05-11T00:19:56.651Z,95849.63
2023-05-11T00:22:25.202Z,95840.22
2023-05-11T00:24:55.101Z,95842.06
2023-05-11T00:27:23.783Z,95849.09
2023-05-11T00:29:52.975Z,95843.72
2023-05-11T00:32:21.550Z,95845.06
2023-05-11T00:34:50.311Z,95842.50
2023-05-11T00:37:20.319Z,95838.34
2023-05-11T00:39:49.142Z,95840.22
2023-05-11T00:42:19.451Z,95843.22
2023-05-11T00:44:48.554Z,95842.78
2023-05-11T00:47:17.205Z,95842.91
2023-05-11T00:49:46.735Z,95842.91
2023-05-11T00:52:15.187Z,95833.22
2023-05-11T00:54:43.849Z,95837.91
2023-05-11T00:57:12.670Z,95839.91
2023-05-11T00:59:42.548Z,95835.09
2023-05-11T01:02:11.999Z,95837.28
2023-05-11T01:04:40.952Z,95833.47
2023-05-11T01:07:14.419Z,95844.50
2023-05-11T01:09:50.327Z,95833.47
2023-05-11T01:12:24.188Z,95835.91
2023-05-11T01:15:01.979Z,95833.09
2023-05-11T01:17:38.407Z,95828.09
2023-05-11T01:20:10.473Z,95828.47
2023-05-11T01:22:55.895Z,95828.47
2023-05-11T01:25:34.696Z,95831.16
2023-05-11T01:28:17.471Z,95830.47
2023-05-11T01:30:50.456Z,95836.91
2023-05-11T01:33:22.357Z,95842.50
2023-05-11T01:35:53.898Z,95837.88
2023-05-11T01:38:24.416Z,95845.00
2023-05-11T01:40:56.697Z,95842.44
2023-05-11T01:43:27.833Z,95844.16
2023-05-11T01:46:02.052Z,95844.53
2023-05-11T01:48:33.201Z,95846.53
2023-05-11T01:51:04.271Z,95844.34
2023-05-11T01:53:35.930Z,95842.00
2023-05-11T01:56:06.241Z,95848.88
2023-05-11T01:58:36.201Z,95826.13
2023-05-11T02:01:07.100Z,95844.94
2023-05-11T02:03:38.089Z,95844.56
2023-05-11T02:06:08.179Z,95841.56
2023-05-11T02:08:37.666Z,95848.44
2023-05-11T02:11:07.804Z,95807.22
2023-05-11T02:13:37.770Z,95853.78
2023-05-11T02:16:09.301Z,95848.13
2023-05-11T02:18:41.127Z,95848.34
2023-05-11T02:21:11.124Z,95850.19
2023-05-11T02:23:40.720Z,95854.03
2023-05-11T02:26:12.830Z,95856.34
2023-05-11T02:28:41.688Z,95840.88
2023-05-11T02:31:18.777Z,95850.19
2023-05-11T02:33:52.273Z,95845.06
2023-05-11T02:36:23.259Z,95841.22
2023-05-11T02:38:54.630Z,95854.41
2023-05-11T02:41:27.736Z,95845.31
2023-05-11T02:43:57.530Z,95841.03
2023-05-11T02:46:31.137Z,95839.28
2023-05-11T02:49:02.358Z,95840.66
2023-05-11T02:51:34.165Z,95834.38
2023-05-11T02:54:03.995Z,95845.44
2023-05-11T02:56:33.078Z,95836.00
2023-05-11T02:59:02.371Z,95840.19
2023-05-11T03:01:32.839Z,95838.53
2023-05-11T03:04:01.469Z,95839.75
2023-05-11T03:06:31.744Z,95840.19
2023-05-11T03:09:00.627Z,95845.19
2023-05-11T03:11:29.613Z,95841.03
2023-05-11T03:13:59.130Z,95836.72
2023-05-11T03:16:28.841Z,95840.53
2023-05-11T03:19:00.376Z,95837.06
2023-05-11T03:21:29.493Z,95841.09
2023-05-11T03:23:59.045Z,95830.19
2023-05-11T03:26:30.327Z,95842.75
2023-05-11T03:28:59.749Z,95841.69
2023-05-11T03:31:29.724Z,95840.19
2023-05-11T03:34:00.708Z,95839.63
2023-05-11T03:36:29.979Z,95825.69
2023-05-11T03:38:59.426Z,95838.78
2023-05-11T03:41:29.302Z,95841.47
2023-05-11T03:43:58.252Z,95842.31
2023-05-11T03:46:30.913Z,95841.47
2023-05-11T03:49:01.275Z,95842.88
2023-05-11T03:51:32.001Z,95843.66
2023-05-11T03:54:00.782Z,95841.81
2023-05-11T03:56:29.949Z,95837.50
2023-05-11T03:58:58.568Z,95843.78
2023-05-11T04:01:28.409Z,95849.16
2023-05-11T04:03:56.998Z,95840.53
2023-05-11T04:06:27.414Z,95852.97
2023-05-11T04:08:55.856Z,95846.00
2023-05-11T04:11:25.002Z,95853.44
2023-05-11T04:13:53.824Z,95842.94
2023-05-11T04:16:22.937Z,95839.69
2023-05-11T04:18:51.766Z,95847.69
2023-05-11T04:21:20.424Z,95854.22
2023-05-11T04:23:50.678Z,95848.72
2023-05-11T04:26:19.785Z,95853.47
2023-05-11T04:28:48.661Z,95858.22
2023-05-11T04:31:17.467Z,95847.50
2023-05-11T04:33:46.171Z,95849.56
2023-05-11T04:36:14.869Z,95852.31
2023-05-11T04:38:43.676Z,95857.31
2023-05-11T04:41:14.166Z,95861.66
2023-05-11T04:43:43.055Z,95854.53
2023-05-11T04:46:12.049Z,95854.97
2023-05-11T04:48:41.130Z,95854.97
2023-05-11T04:51:10.294Z,95860.16
2023-05-11T04:53:39.176Z,95857.34
2023-05-11T04:56:08.337Z,95857.09
2023-05-11T04:58:38.553Z,95853.34
2023-05-11T05:01:07.332Z,95858.47
2023-05-11T05:03:36.112Z,95853.78
2023-05-11T05:06:05.260Z,95856.75
2023-05-11T05:08:34.492Z,95862.31
2023-05-11T05:11:03.077Z,95863.22
2023-05-11T05:13:31.744Z,95864.22
2023-05-11T05:16:02.119Z,95855.75
2023-05-11T05:18:31.405Z,95865.28
2023-05-11T05:21:00.163Z,95857.06
2023-05-11T05:23:29.178Z,95861.53
2023-05-11T05:25:58.221Z,95860.22
2023-05-11T05:28:26.523Z,95864.97
2023-05-11T05:30:55.389Z,95863.22
2023-05-11T05:33:25.020Z,95867.03
2023-05-11T05:35:53.883Z,95861.63
2023-05-11T05:38:22.284Z,95866.13
2023-05-11T05:40:51.177Z,95859.63
2023-05-11T05:43:19.794Z,95868.69
2023-05-11T05:45:49.344Z,95863.03
2023-05-11T05:48:18.366Z,95865.78
2023-05-11T05:50:48.707Z,95871.44
2023-05-11T05:53:17.345Z,95863.63
2023-05-11T05:55:46.552Z,95872.16
2023-05-11T05:58:15.633Z,95866.22
2023-05-11T06:00:44.507Z,95863.78
2023-05-11T06:03:13.403Z,95866.09
2023-05-11T06:05:42.796Z,95869.88
2023-05-11T06:08:13.090Z,95864.22
2023-05-11T06:10:42.282Z,95866.75
2023-05-11T06:13:11.077Z,95861.63
2023-05-11T06:15:41.913Z,95873.81
2023-05-11T06:18:12.723Z,95872.34
2023-05-11T06:20:41.312Z,95868.78
2023-05-11T06:23:10.466Z,95872.59
2023-05-11T06:25:40.954Z,95872.31
2023-05-11T06:28:10.431Z,95886.91
2023-05-11T06:30:39.031Z,95881.75
2023-05-11T06:33:08.254Z,95877.94
2023-05-11T06:35:38.047Z,95881.78
2023-05-11T06:38:07.186Z,95883.78
2023-05-11T06:40:35.733Z,95878.28
2023-05-11T06:43:06.834Z,95879.06
2023-05-11T06:45:35.731Z,95890.66
2023-05-11T06:48:04.794Z,95884.38
2023-05-11T06:50:33.811Z,95881.50
2023-05-11T06:53:03.006Z,95884.97
2023-05-11T06:55:31.651Z,95885.19
2023-05-11T06:58:00.450Z,95876.19
2023-05-11T07:00:30.391Z,95876.72
2023-05-11T07:02:59.303Z,95877.69
2023-05-11T07:05:28.479Z,95882.22
2023-05-11T07:07:59.870Z,95872.28
2023-05-11T07:10:28.585Z,95872.63
2023-05-11T07:12:56.981Z,95872.09
2023-05-11T07:15:25.772Z,95873.72
2023-05-11T07:17:56.084Z,95872.69
2023-05-11T07:20:25.183Z,95873.47
2023-05-11T07:22:54.067Z,95874.25
2023-05-11T07:25:23.154Z,95873.47
2023-05-11T07:27:52.544Z,95872.09
2023-05-11T07:30:21.787Z,95866.88
2023-05-11T07:32:51.284Z,95872.66
2023-05-11T07:35:24.027Z,95875.91
2023-05-11T07:37:53.472Z,95870.56
2023-05-11T07:40:22.873Z,95870.84
2023-05-11T07:42:59.107Z,95873.50
2023-05-11T07:45:28.190Z,95871.69
2023-05-11T07:47:57.414Z,95870.97
2023-05-11T07:50:27.827Z,95873.44
2023-05-11T07:52:57.102Z,95875.78
2023-05-11T07:55:26.324Z,95875.06
2023-05-11T07:57:56.115Z,95879.53
2023-05-11T08:00:25.045Z,95875.53
2023-05-11T08:02:54.017Z,95861.28
2023-05-11T08:05:22.967Z,95870.56
2023-05-11T08:07:53.189Z,95869.78
2023-05-11T08:10:21.784Z,95863.34
2023-05-11T08:12:50.696Z,95866.72
2023-05-11T08:15:19.560Z,95869.16
2023-05-11T08:17:48.731Z,95855.13
2023-05-11T08:20:17.637Z,95860.84
2023-05-11T08:22:46.311Z,95865.91
2023-05-11T08:25:17.140Z,95857.66
2023-05-11T08:27:46.435Z,95858.66
2023-05-11T08:30:16.258Z,95855.56
2023-05-11T08:32:57.976Z,95848.59
2023-05-11T08:35:27.524Z,95850.69
2023-05-11T08:37:56.836Z,95848.78
2023-05-11T08:40:29.396Z,95839.88
2023-05-11T08:42:58.874Z,95843.75
2023-05-11T08:45:28.246Z,95840.84
2023-05-11T08:47:57.040Z,95854.59
2023-05-11T08:50:26.494Z,95847.34
2023-05-11T08:53:15.615Z,95853.63
2023-05-11T08:55:47.213Z,95843.09
2023-05-11T08:58:19.739Z,95849.09
2023-05-11T09:00:52.487Z,95842.16
2023-05-11T09:03:21.810Z,95846.69
2023-05-11T09:05:51.605Z,95846.66
2023-05-11T09:08:20.887Z,95837.63
2023-05-11T09:10:51.504Z,95842.91
2023-05-11T09:13:22.352Z,95839.66
2023-05-11T09:15:51.370Z,95845.47
2023-05-11T09:18:20.060Z,95841.44
2023-05-11T09:20:49.087Z,95840.09
2023-05-11T09:23:18.191Z,95838.66
2023-05-11T09:25:47.533Z,95846.75
2023-05-11T09:28:25.543Z,95831.34
2023-05-11T09:30:54.829Z,95835.44
2023-05-11T09:33:25.171Z,95835.41
2023-05-11T09:35:54.517Z,95837.38
2023-05-11T09:38:23.325Z,95839.06
2023-05-11T09:40:53.456Z,95838.31
2023-05-11T09:43:25.062Z,95835.97
2023-05-11T09:45:55.168Z,95834.66
2023-05-11T09:48:29.236Z,95836.50
2023-05-11T09:51:03.620Z,95830.59
2023-05-11T09:53:41.338Z,95844.84
2023-05-11T09:56:10.655Z,95836.13
2023-05-11T09:58:52.553Z,95841.09
2023-05-11T10:01:31.009Z,95823.03
2023-05-11T10:04:18.026Z,95802.56
2023-05-11T10:06:51.294Z,95825.59
2023-05-11T10:09:21.214Z,95820.66
2023-05-11T10:11:50.177Z,95817.66
2023-05-11T10:14:20.682Z,95816.47
2023-05-11T10:16:49.681Z,95806.44
2023-05-11T10:19:19.367Z,95807.72
2023-05-11T10:21:48.611Z,95820.72
2023-05-11T10:24:20.220Z,95818.00
2023-05-11T10:26:50.151Z,95819.53
2023-05-11T10:29:21.145Z,95812.84
2023-05-11T10:31:51.841Z,95817.25
2023-05-11T10:34:23.448Z,95819.13
2023-05-11T10:36:54.363Z,95814.34
2023-05-11T10:39:23.526Z,95821.00
2023-05-11T10:42:03.527Z,95820.41
2023-05-11T10:44:50.662Z,95797.25
2023-05-11T10:47:48.109Z,95807.34
2023-05-11T10:50:32.069Z,95800.03
2023-05-11T10:53:10.535Z,95820.56
2023-05-11T10:55:53.453Z,95804.94
2023-05-11T10:58:31.685Z,95814.94
2023-05-11T11:01:23.603Z,95803.78
2023-05-11T11:03:59.930Z,95815.63
2023-05-11T11:06:29.777Z,95814.16
2023-05-11T11:09:02.831Z,95806.91
2023-05-11T11:11:33.692Z,95814.75
2023-05-11T11:14:05.898Z,95824.78
2023-05-11T11:16:37.335Z,95816.03
2023-05-11T11:19:42.821Z,95826.84
2023-05-11T11:22:44.992Z,95815.03
2023-05-11T11:25:15.022Z,95824.34
2023-05-11T11:27:58.014Z,95823.03
2023-05-11T11:30:29.638Z,95800.50
2023-05-11T11:33:35.600Z,95825.94
2023-05-11T11:36:04.893Z,95821.53
2023-05-11T11:38:34.406Z,95814.84
2023-05-11T11:41:03.689Z,95824.22
2023-05-11T11:43:46.834Z,95823.94
2023-05-11T11:46:28.282Z,95817.28
2023-05-11T11:49:09.954Z,95819.88
2023-05-11T11:51:40.635Z,95814.88
2023-05-11T11:54:09.916Z,95814.41
2023-05-11T11:56:45.713Z,95810.06
2023-05-11T11:59:16.350Z,95817.50
2023-05-11T12:01:46.157Z,95819.16
2023-05-11T12:04:50.348Z,95816.59
2023-05-11T12:07:21.734Z,95819.53
2023-05-11T12:09:53.145Z,95816.25
2023-05-11T12:12:22.687Z,95810.28
2023-05-11T12:14:51.661Z,95811.53
2023-05-11T12:17:28.520Z,95814.06
2023-05-11T12:19:57.803Z,95807.19
2023-05-11T12:22:27.930Z,95802.00
2023-05-11T12:25:00.420Z,95796.56
2023-05-11T12:27:30.200Z,95800.94
2023-05-11T12:29:59.763Z,95800.44
2023-05-11T12:32:29.558Z,95796.88
2023-05-11T12:35:02.882Z,95802.03
2023-05-11T12:37:33.881Z,95804.31
2023-05-11T12:40:03.109Z,95806.25
2023-05-11T12:42:33.277Z,95803.84
2023-05-11T12:45:04.740Z,95805.28
2023-05-11T12:47:34.131Z,95799.13
2023-05-11T12:50:03.768Z,95809.25
2023-05-11T12:52:34.034Z,95809.13
2023-05-11T12:55:02.588Z,95814.63
2023-05-11T12:57:33.777Z,95815.56
2023-05-11T13:00:13.734Z,95810.09
2023-05-11T13:02:46.957Z,95811.56
2023-05-11T13:05:17.278Z,95805.22
2023-05-11T13:07:48.879Z,95803.59
2023-05-11T13:10:19.032Z,95797.16
2023-05-11T13:12:52.050Z,95797.97
2023-05-11T13:15:22.050Z,95792.81
2023-05-11T13:17:58.317Z,95794.44
2023-05-11T13:20:29.957Z,95782.31
2023-05-11T13:23:10.447Z,95790.53
2023-05-11T13:25:53.670Z,95788.59
2023-05-11T13:28:24.480Z,95783.63
2023-05-11T13:30:54.058Z,95787.63
2023-05-11T13:33:23.153Z,95781.63
2023-05-11T13:35:52.274Z,95785.22
2023-05-11T13:38:22.450Z,95778.44
2023-05-11T13:40:50.895Z,95783.94
2023-05-11T13:43:19.989Z,95777.78
2023-05-11T13:45:48.902Z,95772.94
2023-05-11T13:48:18.021Z,95768.72
2023-05-11T13:50:46.643Z,95770.16
2023-05-11T13:53:19.508Z,95770.47
2023-05-11T13:55:49.873Z,95774.03
2023-05-11T13:58:19.086Z,95772.59
2023-05-11T14:01:06.538Z,95777.09
2023-05-11T14:03:37.252Z,95771.75
2023-05-11T14:06:06.669Z,95762.56
2023-05-11T14:08:35.895Z,95761.28
2023-05-11T14:11:06.631Z,95773.91
2023-05-11T14:13:35.562Z,95768.22
2023-05-11T14:16:04.956Z,95768.38
2023-05-11T14:18:33.671Z,95762.75
2023-05-11T14:21:02.728Z,95769.84
2023-05-11T14:23:31.291Z,95766.59
2023-05-11T14:26:00.387Z,95773.72
2023-05-11T14:28:30.458Z,95765.47
2023-05-11T14:30:59.810Z,95760.81
2023-05-11T14:33:28.900Z,95761.78
2023-05-11T14:35:57.719Z,95762.56
2023-05-11T14:38:26.629Z,95765.03
2023-05-11T14:40:55.870Z,95762.09
2023-05-11T14:43:24.691Z,95765.81
2023-05-11T14:45:55.183Z,95769.66
2023-05-11T14:48:24.262Z,95765.03
2023-05-11T14:50:53.384Z,95754.84
2023-05-11T14:53:22.307Z,95760.78
2023-05-11T14:55:50.938Z,95760.00
2023-05-11T14:58:19.688Z,95760.00
2023-05-11T15:00:48.834Z,95765.00
2023-05-11T15:03:19.318Z,95758.72
2023-05-11T15:05:48.356Z,95755.16
2023-05-11T15:08:29.134Z,95754.66
2023-05-11T15:10:59.438Z,95759.53
2023-05-11T15:13:28.097Z,95758.69
2023-05-11T15:15:57.177Z,95758.03
2023-05-11T15:18:27.524Z,95758.88
2023-05-11T15:20:56.655Z,95763.22
2023-05-11T15:23:25.254Z,95761.13
2023-05-11T15:25:54.492Z,95767.75
2023-05-11T15:28:23.592Z,95757.91
2023-05-11T15:30:52.487Z,95768.56
2023-05-11T15:33:21.712Z,95740.75
2023-05-11T15:35:52.717Z,95762.25
2023-05-11T15:38:21.659Z,95769.19
2023-05-11T15:40:50.981Z,95766.09
2023-05-11T15:43:19.778Z,95762.41
2023-05-11T15:45:48.868Z,95773.03
2023-05-11T15:48:17.533Z,95771.22
2023-05-11T15:50:46.132Z,95770.75
2023-05-11T15:53:16.197Z,95770.53
2023-05-11T15:55:46.486Z,95771.63
2023-05-11T15:58:15.275Z,95771.50
2023-05-11T16:00:43.874Z,95770.69
2023-05-11T16:03:12.650Z,95772.13
2023-05-11T16:05:41.438Z,95773.88
2023-05-11T16:08:10.035Z,95774.03
2023-05-11T16:10:40.576Z,95770.19
2023-05-11T16:13:10.793Z,95776.59
2023-05-11T16:15:40.272Z,95778.69
2023-05-11T16:18:09.139Z,95774.84
2023-05-11T16:20:38.086Z,95775.00
2023-05-11T16:23:07.342Z,95793.00
2023-05-11T16:25:35.897Z,95781.91
2023-05-11T16:28:06.691Z,95779.44
2023-05-11T16:30:35.486Z,95785.97
2023-05-11T16:33:04.578Z,95795.00
2023-05-11T16:35:36.968Z,95793.56
2023-05-11T16:38:06.513Z,95790.91
2023-05-11T16:40:35.427Z,95794.56
2023-05-11T16:43:06.294Z,95800.16
2023-05-11T16:45:35.201Z,95793.44
2023-05-11T16:48:04.346Z,95791.44
2023-05-11T16:50:32.994Z,95781.31
2023-05-11T16:53:02.176Z,95783.38
2023-05-11T16:55:31.866Z,95790.81
2023-05-11T16:58:00.838Z,95784.78
2023-05-11T17:00:34.217Z,95784.13
2023-05-11T17:03:03.605Z,95792.00
2023-05-11T17:05:33.099Z,95779.41
2023-05-11T17:08:01.745Z,95789.84
2023-05-11T17:10:30.796Z,95791.13
2023-05-11T17:12:59.686Z,95792.66
2023-05-11T17:15:28.815Z,95789.44
2023-05-11T17:18:01.465Z,95795.66
2023-05-11T17:20:30.129Z,95798.75
2023-05-11T17:22:59.361Z,95797.41
2023-05-11T17:25:29.709Z,95793.63
2023-05-11T17:27:58.602Z,95800.47
2023-05-11T17:30:36.303Z,95797.81
2023-05-11T17:33:17.707Z,95800.00
2023-05-11T17:35:46.786Z,95811.53
2023-05-11T17:38:16.147Z,95815.94
2023-05-11T17:40:45.385Z,95812.53
2023-05-11T17:43:14.213Z,95805.25
2023-05-11T17:45:43.027Z,95809.22
2023-05-11T17:48:13.336Z,95811.00
2023-05-11T17:50:44.605Z,95816.41
2023-05-11T17:53:15.098Z,95810.56
2023-05-11T17:55:44.702Z,95810.56
2023-05-11T17:58:13.829Z,95813.28
2023-05-11T18:00:43.324Z,95823.72
2023-05-11T18:03:13.002Z,95816.97
2023-05-11T18:08:19.144Z,95813.78
2023-05-11T18:10:47.693Z,95827.63
2023-05-11T18:13:17.597Z,95827.38
2023-05-11T18:15:48.095Z,95836.31
2023-05-11T18:18:17.093Z,95838.72
2023-05-11T18:20:46.678Z,95846.72
2023-05-11T18:23:15.603Z,95853.09
2023-05-11T18:25:46.070Z,95857.97
2023-05-11T18:28:14.705Z,95848.22
2023-05-11T18:30:44.084Z,95848.38
2023-05-11T18:33:12.991Z,95847.03
2023-05-11T18:35:42.429Z,95857.47
2023-05-11T18:38:10.984Z,95862.72
2023-05-11T18:40:39.878Z,95857.72
2023-05-11T18:43:10.264Z,95860.97
2023-05-11T18:45:41.244Z,95856.66
2023-05-11T18:48:10.517Z,95869.78
2023-05-11T18:50:40.556Z,95872.03
2023-05-11T18:53:09.826Z,95872.31
2023-05-11T18:55:51.860Z,95869.06
2023-05-11T18:58:24.225Z,95876.91
2023-05-11T19:00:53.399Z,95878.00
2023-05-11T19:03:23.280Z,95882.59
2023-05-11T19:05:52.414Z,95879.34
2023-05-11T19:08:20.901Z,95877.84
2023-05-11T19:10:50.085Z,95873.94
2023-05-11T19:13:19.218Z,95884.59
2023-05-11T19:15:50.193Z,95887.44
2023-05-11T19:18:20.085Z,95888.69
2023-05-11T19:20:49.334Z,95888.78
2023-05-11T19:23:18.386Z,95892.44
2023-05-11T19:25:47.127Z,95892.88
2023-05-11T19:28:16.082Z,95894.19
2023-05-11T19:30:44.872Z,95891.50
2023-05-11T19:33:17.499Z,95896.63
2023-05-11T19:35:46.513Z,95900.25
2023-05-11T19:38:15.087Z,95909.03
2023-05-11T19:40:47.683Z,95901.44
2023-05-11T19:43:17.168Z,95902.53
2023-05-11T19:45:46.276Z,95904.28
2023-05-11T19:48:18.062Z,95911.16
2023-05-11T19:50:47.516Z,95911.16
2023-05-11T19:53:17.067Z,95912.81
2023-05-11T19:55:48.032Z,95912.13
2023-05-11T19:58:17.685Z,95914.13
2023-05-11T20:00:47.975Z,95912.66
2023-05-11T20:03:18.284Z,95925.22
2023-05-11T20:05:47.367Z,95913.84
2023-05-11T20:08:16.872Z,95920.78
2023-05-11T20:10:46.516Z,95921.72
2023-05-11T20:13:15.477Z,95923.44
2023-05-11T20:15:44.738Z,95913.47
2023-05-11T20:18:13.908Z,95913.03
2023-05-11T20:20:44.251Z,95914.38
2023-05-11T20:23:13.639Z,95913.56
2023-05-11T20:25:44.340Z,95911.25
2023-05-11T20:28:13.609Z,95913.81
2023-05-11T20:30:43.051Z,95913.81
2023-05-11T20:35:45.807Z,95906.78
2023-05-11T20:38:18.118Z,95910.16
2023-05-11T20:40:46.584Z,95908.53
2023-05-11T20:43:15.903Z,95911.91
2023-05-11T20:45:45.832Z,95909.06
2023-05-11T20:48:19.391Z,95903.00
2023-05-11T20:50:54.347Z,95907.34
2023-05-11T20:53:23.364Z,95907.59
2023-05-11T20:55:52.137Z,95909.59
2023-05-11T20:58:21.234Z,95904.16
2023-05-11T21:00:50.520Z,95901.56
2023-05-11T21:03:20.447Z,95903.44
2023-05-11T21:05:49.631Z,95905.88
2023-05-11T21:08:20.462Z,95909.00
2023-05-11T21:10:49.420Z,95906.28
2023-05-11T21:13:18.432Z,95896.72
2023-05-11T21:15:47.956Z,95904.06
2023-05-11T21:18:17.452Z,95914.31
2023-05-11T21:20:46.412Z,95898.50
2023-05-11T21:23:18.419Z,95898.03
2023-05-11T21:25:53.632Z,95899.41
2023-05-11T21:28:24.039Z,95902.69
2023-05-11T21:30:53.776Z,95902.94
2023-05-11T21:33:22.537Z,95905.22
2023-05-11T21:35:51.938Z,95891.47
2023-05-11T21:38:21.494Z,95900.03
2023-05-11T21:40:54.090Z,95906.53
2023-05-11T21:43:22.689Z,95906.34
2023-05-11T21:45:52.240Z,95908.09
2023-05-11T21:48:21.518Z,95912.28
2023-05-11T21:50:54.135Z,95905.53
2023-05-11T21:53:24.032Z,95903.66
2023-05-11T21:55:54.555Z,95908.66
2023-05-11T21:58:23.389Z,95897.16
2023-05-11T22:00:52.325Z,95906.66
2023-05-11T22:03:21.483Z,95911.09
2023-05-11T22:05:50.163Z,95907.72
2023-05-11T22:08:18.661Z,95909.34
2023-05-11T22:10:47.599Z,95909.22
2023-05-11T22:13:17.681Z,95904.22
2023-05-11T22:15:48.670Z,95908.13
2023-05-11T22:18:17.513Z,95909.09
2023-05-11T22:20:46.705Z,95915.00
2023-05-11T22:23:15.881Z,95911.78
2023-05-11T22:25:44.896Z,95913.78
2023-05-11T22:28:13.642Z,95913.94
2023-05-11T22:30:47.284Z,95917.28
2023-05-11T22:33:15.835Z,95918.25
2023-05-11T22:35:44.882Z,95913.50
2023-05-11T22:38:13.623Z,95916.59
2023-05-11T22:40:42.649Z,95916.59
2023-05-11T22:43:11.292Z,95913.94
2023-05-11T22:45:40.804Z,95918.25
2023-05-11T22:48:10.900Z,95915.28
2023-05-11T22:50:39.783Z,95922.84
2023-05-11T22:53:08.864Z,95911.22
2023-05-11T22:55:37.686Z,95912.84
2023-05-11T22:58:06.686Z,95914.84
2023-05-11T23:00:35.787Z,95913.50
2023-05-11T23:03:05.522Z,95909.03
2023-05-11T23:05:35.582Z,95916.59
2023-05-11T23:08:04.398Z,95907.28
2023-05-11T23:10:32.879Z,95909.84
2023-05-11T23:13:01.785Z,95909.97
2023-05-11T23:15:33.150Z,95916.28
2023-05-11T23:18:02.785Z,95913.56
2023-05-11T23:20:31.369Z,95910.31
2023-05-11T23:23:01.724Z,95911.94
2023-05-11T23:25:30.026Z,95911.25
2023-05-11T23:28:00.926Z,95908.81
2023-05-11T23:30:29.993Z,95917.31
2023-05-11T23:32:59.285Z,95901.69
2023-05-11T23:35:28.325Z,95902.63
2023-05-11T23:37:57.192Z,95905.31
2023-05-11T23:40:28.607Z,95908.13
2023-05-11T23:42:57.305Z,95902.31
2023-05-11T23:45:26.426Z,95899.75
2023-05-11T23:47:55.473Z,95908.91
2023-05-11T23:50:24.065Z,95903.00
2023-05-11T23:52:53.218Z,95903.94
2023-05-11T23:55:24.399Z,95900.56
2023-05-11T23:57:56.271Z,95896.22
